Terminal Aerodrome Forecast
Issued by NWS Albany, NY

Home | Current Version | Previous Version | Text Only | Print | Product List | Glossary On
Versions: 1 2 3 4 5 6 7 8 9 10 11 12 13
466
FTUS41 KALY 311720
TAFGFL
TAF
KGFL 311720Z 3118/0118 18008KT P6SM BKN080 BKN120
     FM312300 20006KT P6SM VCSH BKN050 OVC090
     FM010900 04005KT 5SM BR SCT006 BKN012
     FM011400 03007KT P6SM SCT015 BKN025
     FM011600 02009KT P6SM BKN045=

USA.gov is the U.S. government's official web portal to all federal, state and local government web resources and services.